Princeton, Nebraska
Current Conditions -  °F | °C
As of 12:54 PM on Thursday 30 Oct 2014 (Local Time) from KLNK Reporting Station
Clear Clear  
Wind Chill: 62°   Ceiling: Unl
Heat Index: 62°   Visibility: 10mi
Dew Point: 39°   Wind: 21mph
Humidity: 43%   Direction: 320°NW
Pressure: 30.12"   Gusts: 28mph
Location:  40.6351°N, 96.7488°W
Report Text: KLNK 301754Z 32018G24KT 10SM CLR 17/04 A3012 RMK AO2 SLP201 T01670039 10172 20022 53005
Loading
Personal Weather Stations






























Interactive Weather Map
Tropical Storm Tracking
New forecast layout! Learn more

10-Day Weather Forecast

Advertisements
Track Severe Weather on mobile